Home > Products > Valid Products > TAF

000
FTUS44 KOUN 051723
TAFLAW
TAF
KLAW 051723Z 0518/0618 20012KT P6SM SCT030
     FM060100 15010KT P6SM FEW250
     FM061000 17011KT P6SM BKN020
     FM061500 20015G25KT P6SM BKN020=



000
FTUS44 KOUN 051723
TAFWWR
TAF
KWWR 051723Z 0518/0618 21017G26KT P6SM SCT050
     FM060100 17014KT P6SM FEW250
     FM061300 20016G25KT P6SM SCT020 SCT250=



000
FTUS44 KOUN 051723
TAFHBR
TAF
KHBR 051723Z 0518/0618 22015G24KT P6SM SCT030
     FM060100 18014KT P6SM FEW250
     FM061200 20018G27KT P6SM BKN020=



000
FTUS44 KOUN 051723
TAFGAG
TAF
KGAG 051723Z 0518/0618 20018G27KT P6SM SCT050
     FM060100 17014KT P6SM FEW250
     FM061300 20017G25KT P6SM SCT020 SCT250=



000
FTUS44 KOUN 051723
TAFOUN
TAF
KOUN 051723Z 0518/0618 19012G19KT P6SM SCT030 SCT150
     FM060100 17010KT P6SM FEW250
     FM061300 19016G25KT P6SM BKN020=



000
FTUS44 KOUN 051723
TAFSPS
TAF
KSPS 051723Z 0518/0618 19014G22KT P6SM SCT030
     FM060100 17012KT P6SM FEW250
     FM060900 18012KT P6SM BKN020
     FM061400 19017G26KT P6SM BKN020=



000
FTUS44 KOUN 051723
TAFOUN
TAF
KOUN 051723Z 0518/0618 19012G19KT P6SM SCT030 SCT150
     FM060100 17010KT P6SM FEW250
     FM061300 19016G25KT P6SM BKN020=



000
FTUS44 KOUN 051723
TAFPNC
TAF
KPNC 051723Z 0518/0618 19011KT P6SM SCT050 SCT150
     FM060100 15010KT P6SM FEW250
     FM061300 18012KT P6SM SCT020 SCT250=



000
FTUS44 KOUN 051723
TAFSPS
TAF
KSPS 051723Z 0518/0618 19014G22KT P6SM SCT030
     FM060100 17012KT P6SM FEW250
     FM060900 18012KT P6SM BKN020
     FM061400 19017G26KT P6SM BKN020=



000
FTUS44 KOUN 051723
TAFGAG
TAF
KGAG 051723Z 0518/0618 20018G27KT P6SM SCT050
     FM060100 17014KT P6SM FEW250
     FM061300 20017G25KT P6SM SCT020 SCT250=



000
FTUS44 KOUN 051723
TAFWWR
TAF
KWWR 051723Z 0518/0618 21017G26KT P6SM SCT050
     FM060100 17014KT P6SM FEW250
     FM061300 20016G25KT P6SM SCT020 SCT250=



000
FTUS44 KOUN 051723
TAFOKC
TAF
KOKC 051723Z 0518/0618 20013G19KT P6SM SCT030 SCT150
     FM060100 17010KT P6SM FEW250
     FM061300 19017G25KT P6SM BKN020=



000
FTUS44 KOUN 051723
TAFHBR
TAF
KHBR 051723Z 0518/0618 22015G24KT P6SM SCT030
     FM060100 18014KT P6SM FEW250
     FM061200 20018G27KT P6SM BKN020=



000
FTUS44 KOUN 051723
TAFLAW
TAF
KLAW 051723Z 0518/0618 20012KT P6SM SCT030
     FM060100 15010KT P6SM FEW250
     FM061000 17011KT P6SM BKN020
     FM061500 20015G25KT P6SM BKN020=



000
FTUS44 KOUN 051120
TAFHBR
TAF
KHBR 051120Z 0512/0612 20013KT P6SM SCT250
     FM051400 19015G23KT P6SM FEW050 SCT250=



000
FTUS44 KOUN 051120
TAFLAW
TAF
KLAW 051120Z 0512/0612 18006KT P6SM SCT250
     FM051400 18012KT P6SM FEW050 SCT250=



000
FTUS44 KOUN 051120
TAFOUN
TAF
KOUN 051120Z 0512/0612 18010KT P6SM FEW100 BKN250
     FM051600 18014G20KT P6SM SCT050 BKN250
     FM060100 17013KT P6SM FEW250=



000
FTUS44 KOUN 051120
TAFSPS
TAF
KSPS 051120Z 0512/0612 19013KT P6SM SCT250
     FM051400 18014G22KT P6SM FEW050 SCT250
     FM060100 17012KT P6SM BKN250=



000
FTUS44 KOUN 051120
TAFLAW
TAF
KLAW 051120Z 0512/0612 18006KT P6SM SCT250
     FM051400 18012KT P6SM FEW050 SCT250=



000
FTUS44 KOUN 051120
TAFSPS
TAF
KSPS 051120Z 0512/0612 19013KT P6SM SCT250
     FM051400 18014G22KT P6SM FEW050 SCT250
     FM060100 17012KT P6SM BKN250=



000
FTUS44 KOUN 051120
TAFGAG
TAF
KGAG 051120Z 0512/0612 18010KT P6SM SCT200
     FM051400 18015G22KT P6SM SCT250
     FM060100 18012KT P6SM FEW250=



000
FTUS44 KOUN 051120
TAFHBR
TAF
KHBR 051120Z 0512/0612 20013KT P6SM SCT250
     FM051400 19015G23KT P6SM FEW050 SCT250=



000
FTUS44 KOUN 051120
TAFGAG
TAF
KGAG 051120Z 0512/0612 18010KT P6SM SCT200
     FM051400 18015G22KT P6SM SCT250
     FM060100 18012KT P6SM FEW250=



000
FTUS44 KOUN 051120
TAFPNC
TAF
KPNC 051120Z 0512/0612 16011KT P6SM SCT050 BKN250=



000
FTUS44 KOUN 051120
TAFWWR
TAF
KWWR 051120Z 0512/0612 18010KT P6SM SCT200
     FM051400 18015G22KT P6SM SCT250
     FM060100 18012KT P6SM FEW250=



000
FTUS44 KOUN 051120
TAFOKC
TAF
KOKC 051120Z 0512/0612 18010KT P6SM FEW080 BKN250
     FM051600 18014G20KT P6SM SCT050 BKN250
     FM060100 17013KT P6SM FEW250=



000
FTUS44 KOUN 051120
TAFOUN
TAF
KOUN 051120Z 0512/0612 18010KT P6SM FEW100 BKN250
     FM051600 18014G20KT P6SM SCT050 BKN250
     FM060100 17013KT P6SM FEW250=



000
FTUS44 KOUN 051120
TAFOKC
TAF
KOKC 051120Z 0512/0612 18010KT P6SM FEW080 BKN250
     FM051600 18014G20KT P6SM SCT050 BKN250
     FM060100 17013KT P6SM FEW250=



000
FTUS44 KOUN 051120
TAFPNC
TAF
KPNC 051120Z 0512/0612 16011KT P6SM SCT050 BKN250=



000
FTUS44 KOUN 051120
TAFWWR
TAF
KWWR 051120Z 0512/0612 18010KT P6SM SCT200
     FM051400 18015G22KT P6SM SCT250
     FM060100 18012KT P6SM FEW250=



000
FTUS44 KOUN 050522
TAFWWR
TAF
KWWR 050522Z 0506/0606 14010KT P6SM SCT050 SCT150
     FM051400 19016G24KT P6SM SCT250
     FM060300 16012KT P6SM SKC=



000
FTUS44 KOUN 050522
TAFGAG
TAF
KGAG 050522Z 0506/0606 15010KT P6SM SCT050 SCT150
     FM051400 20016G24KT P6SM SCT250
     FM060300 17012KT P6SM SKC=



000
FTUS44 KOUN 050522
TAFHBR
TAF
KHBR 050522Z 0506/0606 16011KT P6SM SCT080 SCT150
     FM051400 21015G24KT P6SM SCT250
     FM060300 17015KT P6SM SKC=



000
FTUS44 KOUN 050522
TAFOKC
TAF
KOKC 050522Z 0506/0606 15009KT P6SM SCT030 SCT100
     FM051400 19012KT P6SM SCT050 SCT250
     FM051900 18014G20KT P6SM BKN050
     FM060300 16013KT P6SM FEW250=



000
FTUS44 KOUN 050522
TAFLAW
TAF
KLAW 050522Z 0506/0606 19008KT P6SM SCT050 SCT100
     FM051600 20014G18KT P6SM FEW250
     FM060100 17012KT P6SM BKN250=



000
FTUS44 KOUN 050522
TAFPNC
TAF
KPNC 050522Z 0506/0606 14007KT P6SM SCT030 SCT150
     FM051400 18009KT P6SM SCT050 SCT150=



000
FTUS44 KOUN 050522
TAFOUN
TAF
KOUN 050522Z 0506/0606 15009KT P6SM SCT030 SCT100
     FM051400 19012KT P6SM SCT050 SCT250
     FM051900 18014G20KT P6SM BKN050
     FM060300 16013KT P6SM FEW250=



000
FTUS44 KOUN 050522
TAFHBR
TAF
KHBR 050522Z 0506/0606 16011KT P6SM SCT080 SCT150
     FM051400 21015G24KT P6SM SCT250
     FM060300 17015KT P6SM SKC=



000
FTUS44 KOUN 050522
TAFPNC
TAF
KPNC 050522Z 0506/0606 14007KT P6SM SCT030 SCT150
     FM051400 18009KT P6SM SCT050 SCT150=



000
FTUS44 KOUN 050522
TAFLAW
TAF
KLAW 050522Z 0506/0606 19008KT P6SM SCT050 SCT100
     FM051600 20014G18KT P6SM FEW250
     FM060100 17012KT P6SM BKN250=



000
FTUS44 KOUN 050522
TAFWWR
TAF
KWWR 050522Z 0506/0606 14010KT P6SM SCT050 SCT150
     FM051400 19016G24KT P6SM SCT250
     FM060300 16012KT P6SM SKC=



000
FTUS44 KOUN 050522
TAFGAG
TAF
KGAG 050522Z 0506/0606 15010KT P6SM SCT050 SCT150
     FM051400 20016G24KT P6SM SCT250
     FM060300 17012KT P6SM SKC=



000
FTUS44 KOUN 050522
TAFSPS
TAF
KSPS 050522Z 0506/0606 19008KT P6SM SCT030 SCT120
     FM051400 20014G24KT P6SM FEW250
     FM060100 17012KT P6SM BKN250=



000
FTUS44 KOUN 050522
TAFGAG
TAF
KGAG 050522Z 0506/0606 15010KT P6SM SCT050 SCT150
     FM051400 20016G24KT P6SM SCT250
     FM060300 17012KT P6SM SKC=



000
FTUS44 KOUN 050522
TAFPNC
TAF
KPNC 050522Z 0506/0606 14007KT P6SM SCT030 SCT150
     FM051400 18009KT P6SM SCT050 SCT150=



000
FTUS44 KOUN 050522
TAFSPS
TAF
KSPS 050522Z 0506/0606 19008KT P6SM SCT030 SCT120
     FM051400 20014G24KT P6SM FEW250
     FM060100 17012KT P6SM BKN250=



000
FTUS44 KOUN 050522
TAFLAW
TAF
KLAW 050522Z 0506/0606 19008KT P6SM SCT050 SCT100
     FM051600 20014G18KT P6SM FEW250
     FM060100 17012KT P6SM BKN250=



000
FTUS44 KOUN 050522
TAFSPS
TAF
KSPS 050522Z 0506/0606 19008KT P6SM SCT030 SCT120
     FM051400 20014G24KT P6SM FEW250
     FM060100 17012KT P6SM BKN250=



000
FTUS44 KOUN 050522
TAFSPS
TAF
KSPS 050522Z 0506/0606 19008KT P6SM SCT030 SCT120
     FM051400 20014G24KT P6SM FEW250
     FM060100 17012KT P6SM BKN250=



000
FTUS44 KOUN 050522
TAFLAW
TAF
KLAW 050522Z 0506/0606 19008KT P6SM SCT050 SCT100
     FM051600 20014G18KT P6SM FEW250
     FM060100 17012KT P6SM BKN250=



000
FTUS44 KOUN 050522
TAFOKC
TAF
KOKC 050522Z 0506/0606 15009KT P6SM SCT030 SCT100
     FM051400 19012KT P6SM SCT050 SCT250
     FM051900 18014G20KT P6SM BKN050
     FM060300 16013KT P6SM FEW250=



000
FTUS44 KOUN 050522
TAFOKC
TAF
KOKC 050522Z 0506/0606 15009KT P6SM SCT030 SCT100
     FM051400 19012KT P6SM SCT050 SCT250
     FM051900 18014G20KT P6SM BKN050
     FM060300 16013KT P6SM FEW250=



000
FTUS44 KOUN 050522
TAFHBR
TAF
KHBR 050522Z 0506/0606 16011KT P6SM SCT080 SCT150
     FM051400 21015G24KT P6SM SCT250
     FM060300 17015KT P6SM SKC=



000
FTUS44 KOUN 050522
TAFOUN
TAF
KOUN 050522Z 0506/0606 15009KT P6SM SCT030 SCT100
     FM051400 19012KT P6SM SCT050 SCT250
     FM051900 18014G20KT P6SM BKN050
     FM060300 16013KT P6SM FEW250=



000
FTUS44 KOUN 050522
TAFOUN
TAF
KOUN 050522Z 0506/0606 15009KT P6SM SCT030 SCT100
     FM051400 19012KT P6SM SCT050 SCT250
     FM051900 18014G20KT P6SM BKN050
     FM060300 16013KT P6SM FEW250=



000
FTUS44 KOUN 050522
TAFHBR
TAF
KHBR 050522Z 0506/0606 16011KT P6SM SCT080 SCT150
     FM051400 21015G24KT P6SM SCT250
     FM060300 17015KT P6SM SKC=



000
FTUS44 KOUN 042320
TAFOUN
TAF
KOUN 042320Z 0500/0524 29011KT P6SM VCTS SCT030CB BKN050
     FM050200 15009KT P6SM SCT030 SCT100
     FM051400 19012KT P6SM SCT050 SCT250
     FM051900 18014G20KT P6SM BKN050=



000
FTUS44 KOUN 042320
TAFHBR
TAF
KHBR 042320Z 0500/0524 16011KT P6SM SCT080 SCT150
     FM051400 21015G24KT P6SM SCT250=



000
FTUS44 KOUN 042320
TAFOUN
TAF
KOUN 042320Z 0500/0524 29011KT P6SM VCTS SCT030CB BKN050
     FM050200 15009KT P6SM SCT030 SCT100
     FM051400 19012KT P6SM SCT050 SCT250
     FM051900 18014G20KT P6SM BKN050=



000
FTUS44 KOUN 042320
TAFWWR
TAF
KWWR 042320Z 0500/0524 14010KT P6SM SCT050 SCT150
     FM051400 19016G24KT P6SM SCT250=



000
FTUS44 KOUN 042320
TAFHBR
TAF
KHBR 042320Z 0500/0524 16011KT P6SM SCT080 SCT150
     FM051400 21015G24KT P6SM SCT250=



000
FTUS44 KOUN 042320
TAFOKC
TAF
KOKC 042320Z 0500/0524 29011KT P6SM VCTS SCT030CB BKN050
     FM050200 15009KT P6SM SCT030 SCT100
     FM051400 19012KT P6SM SCT050 SCT250
     FM051900 18014G20KT P6SM BKN050=



000
FTUS44 KOUN 042320
TAFSPS
TAF
KSPS 042320Z 0500/0524 20008KT P6SM VCTS SCT040CB BKN120
     FM050200 19008KT P6SM SCT030 SCT120
     FM051400 20014G24KT P6SM FEW250=



000
FTUS44 KOUN 042320
TAFOKC
TAF
KOKC 042320Z 0500/0524 29011KT P6SM VCTS SCT030CB BKN050
     FM050200 15009KT P6SM SCT030 SCT100
     FM051400 19012KT P6SM SCT050 SCT250
     FM051900 18014G20KT P6SM BKN050=



000
FTUS44 KOUN 042320
TAFGAG
TAF
KGAG 042320Z 0500/0524 15010KT P6SM SCT050 SCT150
     FM051400 20016G24KT P6SM SCT250=



000
FTUS44 KOUN 042320
TAFGAG
TAF
KGAG 042320Z 0500/0524 15010KT P6SM SCT050 SCT150
     FM051400 20016G24KT P6SM SCT250=



000
FTUS44 KOUN 042320
TAFOUN
TAF
KOUN 042320Z 0500/0524 29011KT P6SM VCTS SCT030CB BKN050
     FM050200 15009KT P6SM SCT030 SCT100
     FM051400 19012KT P6SM SCT050 SCT250
     FM051900 18014G20KT P6SM BKN050=



000
FTUS44 KOUN 042320
TAFSPS
TAF
KSPS 042320Z 0500/0524 20008KT P6SM VCTS SCT040CB BKN120
     FM050200 19008KT P6SM SCT030 SCT120
     FM051400 20014G24KT P6SM FEW250=



000
FTUS44 KOUN 042320
TAFSPS
TAF
KSPS 042320Z 0500/0524 20008KT P6SM VCTS SCT040CB BKN120
     FM050200 19008KT P6SM SCT030 SCT120
     FM051400 20014G24KT P6SM FEW250=



000
FTUS44 KOUN 042320
TAFLAW
TAF
KLAW 042320Z 0500/0524 19008KT P6SM VCTS SCT050CB BKN100
     FM050200 19008KT P6SM SCT050 SCT100
     FM051600 20014G18KT P6SM FEW250=



000
FTUS44 KOUN 042320
TAFHBR
TAF
KHBR 042320Z 0500/0524 16011KT P6SM SCT080 SCT150
     FM051400 21015G24KT P6SM SCT250=



000
FTUS44 KOUN 042320
TAFOKC
TAF
KOKC 042320Z 0500/0524 29011KT P6SM VCTS SCT030CB BKN050
     FM050200 15009KT P6SM SCT030 SCT100
     FM051400 19012KT P6SM SCT050 SCT250
     FM051900 18014G20KT P6SM BKN050=



000
FTUS44 KOUN 042320
TAFGAG
TAF
KGAG 042320Z 0500/0524 15010KT P6SM SCT050 SCT150
     FM051400 20016G24KT P6SM SCT250=



000
FTUS44 KOUN 042320
TAFPNC
TAF
KPNC 042320Z 0500/0524 14007KT P6SM SCT030 SCT150 PROB30 0510/0514
      6SM -TSRA BKN030CB BKN100
     FM051400 18009KT P6SM SCT050 SCT150=



000
FTUS44 KOUN 042320
TAFOUN
TAF
KOUN 042320Z 0500/0524 29011KT P6SM VCTS SCT030CB BKN050
     FM050200 15009KT P6SM SCT030 SCT100
     FM051400 19012KT P6SM SCT050 SCT250
     FM051900 18014G20KT P6SM BKN050=



000
FTUS44 KOUN 042320
TAFSPS
TAF
KSPS 042320Z 0500/0524 20008KT P6SM VCTS SCT040CB BKN120
     FM050200 19008KT P6SM SCT030 SCT120
     FM051400 20014G24KT P6SM FEW250=



000
FTUS44 KOUN 042320
TAFPNC
TAF
KPNC 042320Z 0500/0524 14007KT P6SM SCT030 SCT150 PROB30 0510/0514
      6SM -TSRA BKN030CB BKN100
     FM051400 18009KT P6SM SCT050 SCT150=



000
FTUS44 KOUN 042320
TAFHBR
TAF
KHBR 042320Z 0500/0524 16011KT P6SM SCT080 SCT150
     FM051400 21015G24KT P6SM SCT250=



000
FTUS44 KOUN 042320
TAFWWR
TAF
KWWR 042320Z 0500/0524 14010KT P6SM SCT050 SCT150
     FM051400 19016G24KT P6SM SCT250=



000
FTUS44 KOUN 042320
TAFWWR
TAF
KWWR 042320Z 0500/0524 14010KT P6SM SCT050 SCT150
     FM051400 19016G24KT P6SM SCT250=



000
FTUS44 KOUN 042320
TAFWWR
TAF
KWWR 042320Z 0500/0524 14010KT P6SM SCT050 SCT150
     FM051400 19016G24KT P6SM SCT250=



000
FTUS44 KOUN 042320
TAFLAW
TAF
KLAW 042320Z 0500/0524 19008KT P6SM VCTS SCT050CB BKN100
     FM050200 19008KT P6SM SCT050 SCT100
     FM051600 20014G18KT P6SM FEW250=



000
FTUS44 KOUN 042320
TAFLAW
TAF
KLAW 042320Z 0500/0524 19008KT P6SM VCTS SCT050CB BKN100
     FM050200 19008KT P6SM SCT050 SCT100
     FM051600 20014G18KT P6SM FEW250=



000
FTUS44 KOUN 042320
TAFPNC
TAF
KPNC 042320Z 0500/0524 14007KT P6SM SCT030 SCT150 PROB30 0510/0514
      6SM -TSRA BKN030CB BKN100
     FM051400 18009KT P6SM SCT050 SCT150=



000
FTUS44 KOUN 042320
TAFPNC
TAF
KPNC 042320Z 0500/0524 14007KT P6SM SCT030 SCT150 PROB30 0510/0514
      6SM -TSRA BKN030CB BKN100
     FM051400 18009KT P6SM SCT050 SCT150=



000
FTUS44 KOUN 042320
TAFLAW
TAF
KLAW 042320Z 0500/0524 19008KT P6SM VCTS SCT050CB BKN100
     FM050200 19008KT P6SM SCT050 SCT100
     FM051600 20014G18KT P6SM FEW250=



000
FTUS44 KOUN 042219 AAA
TAFLAW
TAF AMD
KLAW 042219Z 0422/0518 04005KT P6SM BKN070 OVC110
      TEMPO 0423/0501 VRB30G40KT 2SM TSRA OVC040CB
     FM050100 15005KT P6SM SCT150
     FM051500 20010KT P6SM FEW250=



000
FTUS44 KOUN 042219 AAA
TAFLAW
TAF AMD
KLAW 042219Z 0422/0518 04005KT P6SM BKN070 OVC110
      TEMPO 0423/0501 VRB30G40KT 2SM TSRA OVC040CB
     FM050100 15005KT P6SM SCT150
     FM051500 20010KT P6SM FEW250=



000
FTUS44 KOUN 042217 AAB
TAFOUN
TAF AMD
KOUN 042217Z 0422/0518 15009KT P6SM SCT030 SCT100
      TEMPO 0423/0501 VRB35G45KT 2SM TSRA OVC030CB
     FM051400 19012KT P6SM SCT050 SCT250=



000
FTUS44 KOUN 042217 AAB
TAFOUN
TAF AMD
KOUN 042217Z 0422/0518 15009KT P6SM SCT030 SCT100
      TEMPO 0423/0501 VRB35G45KT 2SM TSRA OVC030CB
     FM051400 19012KT P6SM SCT050 SCT250=



000
FTUS44 KOUN 042217 AAB
TAFOUN
TAF AMD
KOUN 042217Z 0422/0518 15009KT P6SM SCT030 SCT100
      TEMPO 0423/0501 VRB35G45KT 2SM TSRA OVC030CB
     FM051400 19012KT P6SM SCT050 SCT250=



000
FTUS44 KOUN 042216 AAA
TAFOKC
TAF AMD
KOKC 042216Z 0422/0518 15009KT P6SM SCT030 SCT100
      TEMPO 0423/0501 VRB35G45KT 2SM TSRA OVC030CB
     FM051400 19012KT P6SM SCT050 SCT250=



000
FTUS44 KOUN 042216 AAA
TAFOKC
TAF AMD
KOKC 042216Z 0422/0518 15009KT P6SM SCT030 SCT100
      TEMPO 0423/0501 VRB35G45KT 2SM TSRA OVC030CB
     FM051400 19012KT P6SM SCT050 SCT250=



000
FTUS44 KOUN 042216 AAA
TAFOKC
TAF AMD
KOKC 042216Z 0422/0518 15009KT P6SM SCT030 SCT100
      TEMPO 0423/0501 VRB35G45KT 2SM TSRA OVC030CB
     FM051400 19012KT P6SM SCT050 SCT250=



000
FTUS44 KOUN 042216 AAA
TAFOKC
TAF AMD
KOKC 042216Z 0422/0518 15009KT P6SM SCT030 SCT100
      TEMPO 0423/0501 VRB35G45KT 2SM TSRA OVC030CB
     FM051400 19012KT P6SM SCT050 SCT250=



000
FTUS44 KOUN 041720
TAFGAG
TAF
KGAG 041720Z 0418/0518 15010KT P6SM SCT050 SCT150
     FM051400 20016G24KT P6SM SCT250=



000
FTUS44 KOUN 041720
TAFGAG
TAF
KGAG 041720Z 0418/0518 15010KT P6SM SCT050 SCT150
     FM051400 20016G24KT P6SM SCT250=



000
FTUS44 KOUN 041720
TAFOUN
TAF
KOUN 041720Z 0418/0518 15009KT P6SM SCT030 SCT100
     FM051400 19012KT P6SM SCT050 SCT250=



000
FTUS44 KOUN 041720
TAFWWR
TAF
KWWR 041720Z 0418/0518 14010KT P6SM SCT050 SCT150
     FM051400 19016G24KT P6SM SCT250=



000
FTUS44 KOUN 041720
TAFOKC
TAF
KOKC 041720Z 0418/0518 15009KT P6SM SCT030 SCT100
     FM051400 19012KT P6SM SCT050 SCT250=



000
FTUS44 KOUN 041720
TAFHBR
TAF
KHBR 041720Z 0418/0518 12006KT P6SM SCT080 SCT150
     FM042200 16011KT P6SM SCT080 SCT150
     FM051400 21015G24KT P6SM SCT250=



000
FTUS44 KOUN 041720
TAFOUN
TAF
KOUN 041720Z 0418/0518 15009KT P6SM SCT030 SCT100
     FM051400 19012KT P6SM SCT050 SCT250=



000
FTUS44 KOUN 041720
TAFLAW
TAF
KLAW 041720Z 0418/0518 19008KT P6SM SCT050 SCT150
     FM050100 15005KT P6SM SCT150
     FM051500 20010KT P6SM FEW250=



000
FTUS44 KOUN 041720
TAFOKC
TAF
KOKC 041720Z 0418/0518 15009KT P6SM SCT030 SCT100
     FM051400 19012KT P6SM SCT050 SCT250=



000
FTUS44 KOUN 041720
TAFPNC
TAF
KPNC 041720Z 0418/0518 10008KT P6SM SCT030 SCT150
     FM042200 14007KT P6SM SCT030 SCT150 PROB30 0510/0514 6SM -TSRA
      BKN030CB BKN100
     FM051400 18009KT P6SM SCT050 SCT150=



000
FTUS44 KOUN 041720
TAFPNC
TAF
KPNC 041720Z 0418/0518 10008KT P6SM SCT030 SCT150
     FM042200 14007KT P6SM SCT030 SCT150 PROB30 0510/0514 6SM -TSRA
      BKN030CB BKN100
     FM051400 18009KT P6SM SCT050 SCT150=



000
FTUS44 KOUN 041720
TAFSPS
TAF
KSPS 041720Z 0418/0518 22008KT P6SM SCT030 SCT250
     FM050100 16010KT P6SM SCT250
     FM051400 20014G24KT P6SM FEW250=



000
FTUS44 KOUN 041720
TAFWWR
TAF
KWWR 041720Z 0418/0518 14010KT P6SM SCT050 SCT150
     FM051400 19016G24KT P6SM SCT250=



000
FTUS44 KOUN 041130
TAFOKC
TAF
KOKC 041130Z 0412/0512 13008KT P6SM SCT250
     FM042100 17012KT P6SM SCT050 BKN250=



000
FTUS44 KOUN 041130
TAFSPS
TAF
KSPS 041130Z 0412/0512 21006KT P6SM BKN250
     FM041800 17011KT P6SM SCT050 SCT250=



000
FTUS44 KOUN 041130
TAFWWR
TAF
KWWR 041130Z 0412/0512 11006KT P6SM BKN120
     FM041800 16013KT P6SM SCT080 BKN250=



000
FTUS44 KOUN 041130
TAFLAW
TAF
KLAW 041130Z 0412/0512 VRB03KT P6SM SCT150
     FM041800 15008KT P6SM SCT050 SCT250=



000
FTUS44 KOUN 041130
TAFSPS
TAF
KSPS 041130Z 0412/0512 21006KT P6SM BKN250
     FM041800 17011KT P6SM SCT050 SCT250=



000
FTUS44 KOUN 041130
TAFOUN
TAF
KOUN 041130Z 0412/0512 13008KT P6SM SCT250
     FM042100 17012KT P6SM SCT050 BKN250=



000
FTUS44 KOUN 041130
TAFPNC
TAF
KPNC 041130Z 0412/0512 06005KT 5SM BR SCT250
      TEMPO 0412/0414 3SM BR
     FM041400 09006KT P6SM SCT050 SCT250
     FM042000 14011KT P6SM SCT100=



000
FTUS44 KOUN 041130
TAFGAG
TAF
KGAG 041130Z 0412/0512 10006KT P6SM BKN100
      TEMPO 0412/0415 -TSRA BKN060CB
     FM041800 16014KT P6SM SCT080 BKN250=



000
FTUS44 KOUN 041130
TAFOUN
TAF
KOUN 041130Z 0412/0512 13008KT P6SM SCT250
     FM042100 17012KT P6SM SCT050 BKN250=



000
FTUS44 KOUN 041130
TAFSPS
TAF
KSPS 041130Z 0412/0512 21006KT P6SM BKN250
     FM041800 17011KT P6SM SCT050 SCT250=



000
FTUS44 KOUN 041130
TAFWWR
TAF
KWWR 041130Z 0412/0512 11006KT P6SM BKN120
     FM041800 16013KT P6SM SCT080 BKN250=



000
FTUS44 KOUN 041130
TAFHBR
TAF
KHBR 041130Z 0412/0512 15007KT P6SM SCT150
     FM042000 17012KT P6SM SCT080 SCT250=



000
FTUS44 KOUN 041130
TAFHBR
TAF
KHBR 041130Z 0412/0512 15007KT P6SM SCT150
     FM042000 17012KT P6SM SCT080 SCT250=



000
FTUS44 KOUN 041130
TAFGAG
TAF
KGAG 041130Z 0412/0512 10006KT P6SM BKN100
      TEMPO 0412/0415 -TSRA BKN060CB
     FM041800 16014KT P6SM SCT080 BKN250=



000
FTUS44 KOUN 041130
TAFPNC
TAF
KPNC 041130Z 0412/0512 06005KT 5SM BR SCT250
      TEMPO 0412/0414 3SM BR
     FM041400 09006KT P6SM SCT050 SCT250
     FM042000 14011KT P6SM SCT100=



000
FTUS44 KOUN 041130
TAFOKC
TAF
KOKC 041130Z 0412/0512 13008KT P6SM SCT250
     FM042100 17012KT P6SM SCT050 BKN250=



000
FTUS44 KOUN 041130
TAFOKC
TAF
KOKC 041130Z 0412/0512 13008KT P6SM SCT250
     FM042100 17012KT P6SM SCT050 BKN250=



000
FTUS44 KOUN 041130
TAFOUN
TAF
KOUN 041130Z 0412/0512 13008KT P6SM SCT250
     FM042100 17012KT P6SM SCT050 BKN250=



000
FTUS44 KOUN 041130
TAFLAW
TAF
KLAW 041130Z 0412/0512 VRB03KT P6SM SCT150
     FM041800 15008KT P6SM SCT050 SCT250=



000
FTUS44 KOUN 041130
TAFPNC
TAF
KPNC 041130Z 0412/0512 06005KT 5SM BR SCT250
      TEMPO 0412/0414 3SM BR
     FM041400 09006KT P6SM SCT050 SCT250
     FM042000 14011KT P6SM SCT100=



000
FTUS44 KOUN 041130
TAFLAW
TAF
KLAW 041130Z 0412/0512 VRB03KT P6SM SCT150
     FM041800 15008KT P6SM SCT050 SCT250=



000
FTUS44 KOUN 041130
TAFOKC
TAF
KOKC 041130Z 0412/0512 13008KT P6SM SCT250
     FM042100 17012KT P6SM SCT050 BKN250=



000
FTUS44 KOUN 041130
TAFHBR
TAF
KHBR 041130Z 0412/0512 15007KT P6SM SCT150
     FM042000 17012KT P6SM SCT080 SCT250=



000
FTUS44 KOUN 041130
TAFWWR
TAF
KWWR 041130Z 0412/0512 11006KT P6SM BKN120
     FM041800 16013KT P6SM SCT080 BKN250=



000
FTUS44 KOUN 041130
TAFOUN
TAF
KOUN 041130Z 0412/0512 13008KT P6SM SCT250
     FM042100 17012KT P6SM SCT050 BKN250=



000
FTUS44 KOUN 041130
TAFSPS
TAF
KSPS 041130Z 0412/0512 21006KT P6SM BKN250
     FM041800 17011KT P6SM SCT050 SCT250=



000
FTUS44 KOUN 041130
TAFGAG
TAF
KGAG 041130Z 0412/0512 10006KT P6SM BKN100
      TEMPO 0412/0415 -TSRA BKN060CB
     FM041800 16014KT P6SM SCT080 BKN250=



000
FTUS44 KOUN 041130
TAFGAG
TAF
KGAG 041130Z 0412/0512 10006KT P6SM BKN100
      TEMPO 0412/0415 -TSRA BKN060CB
     FM041800 16014KT P6SM SCT080 BKN250=



000
FTUS44 KOUN 041130
TAFLAW
TAF
KLAW 041130Z 0412/0512 VRB03KT P6SM SCT150
     FM041800 15008KT P6SM SCT050 SCT250=



000
FTUS44 KOUN 041130
TAFHBR
TAF
KHBR 041130Z 0412/0512 15007KT P6SM SCT150
     FM042000 17012KT P6SM SCT080 SCT250=



000
FTUS44 KOUN 041130
TAFWWR
TAF
KWWR 041130Z 0412/0512 11006KT P6SM BKN120
     FM041800 16013KT P6SM SCT080 BKN250=



000
FTUS44 KOUN 041130
TAFPNC
TAF
KPNC 041130Z 0412/0512 06005KT 5SM BR SCT250
      TEMPO 0412/0414 3SM BR
     FM041400 09006KT P6SM SCT050 SCT250
     FM042000 14011KT P6SM SCT100=



000
FTUS44 KOUN 040639 AAB
TAFOUN
TAF AMD
KOUN 040639Z 0407/0506 VRB05KT P6SM SCT050 BKN250
      TEMPO 0407/0410 2SM -TSRA BKN030CB
     FM041000 VRB06KT 3SM BR SCT015
     FM041500 07007KT P6SM SCT025
     FM041800 12008KT P6SM SCT050 BKN120 PROB30 0420/0424 3SM TSRA
      BKN050CB BKN120=



000
FTUS44 KOUN 040639 AAB
TAFOUN
TAF AMD
KOUN 040639Z 0407/0506 VRB05KT P6SM SCT050 BKN250
      TEMPO 0407/0410 2SM -TSRA BKN030CB
     FM041000 VRB06KT 3SM BR SCT015
     FM041500 07007KT P6SM SCT025
     FM041800 12008KT P6SM SCT050 BKN120 PROB30 0420/0424 3SM TSRA
      BKN050CB BKN120=



000
FTUS44 KOUN 040638 AAA
TAFOKC
TAF AMD
KOKC 040638Z 0407/0506 VRB05KT P6SM SCT050 BKN250
      TEMPO 0407/0410 2SM -TSRA BKN030CB
     FM041000 VRB06KT 5SM BR SCT015
     FM041500 07008KT P6SM SCT025
     FM041800 12008KT P6SM SCT050 BKN120 PROB30 0420/0424 3SM TSRA
      BKN050CB BKN120=



000
FTUS44 KOUN 040638 AAA
TAFOKC
TAF AMD
KOKC 040638Z 0407/0506 VRB05KT P6SM SCT050 BKN250
      TEMPO 0407/0410 2SM -TSRA BKN030CB
     FM041000 VRB06KT 5SM BR SCT015
     FM041500 07008KT P6SM SCT025
     FM041800 12008KT P6SM SCT050 BKN120 PROB30 0420/0424 3SM TSRA
      BKN050CB BKN120=



000
FTUS44 KOUN 040530
TAFOUN
TAF
KOUN 040530Z 0406/0506 VRB05KT P6SM SCT050 BKN250
     FM041000 VRB06KT 3SM BR SCT015
     FM041500 07007KT P6SM SCT025
     FM041800 12008KT P6SM SCT050 BKN120 PROB30 0420/0424 3SM TSRA
      BKN050CB BKN120=



000
FTUS44 KOUN 040530
TAFHBR
TAF
KHBR 040530Z 0406/0506 11006KT P6SM SCT050 BKN250
     FM041500 14011G15KT P6SM BKN250
     FM050300 16010KT P6SM BKN250=



000
FTUS44 KOUN 040530
TAFOKC
TAF
KOKC 040530Z 0406/0506 VRB05KT P6SM SCT050 BKN250
     FM041000 VRB06KT 5SM BR SCT015
     FM041500 07008KT P6SM SCT025
     FM041800 12008KT P6SM SCT050 BKN120 PROB30 0420/0424 3SM TSRA
      BKN050CB BKN120=



000
FTUS44 KOUN 040530
TAFGAG
TAF
KGAG 040530Z 0406/0506 13006KT P6SM BKN100
     FM041800 15012G17KT P6SM BKN100=



000
FTUS44 KOUN 040530
TAFPNC
TAF
KPNC 040530Z 0406/0506 04008KT P6SM SCT040 SCT250 PROB30 0500/0506
      P6SM TSRA BKN050CB=



000
FTUS44 KOUN 040530
TAFLAW
TAF
KLAW 040530Z 0406/0506 04003KT P6SM OVC100
     FM041500 12008KT P6SM BKN180 PROB30 0420/0502 P6SM TSRA
      BKN050CB=



000
FTUS44 KOUN 040530
TAFOKC
TAF
KOKC 040530Z 0406/0506 VRB05KT P6SM SCT050 BKN250
     FM041000 VRB06KT 5SM BR SCT015
     FM041500 07008KT P6SM SCT025
     FM041800 12008KT P6SM SCT050 BKN120 PROB30 0420/0424 3SM TSRA
      BKN050CB BKN120=



000
FTUS44 KOUN 040530
TAFHBR
TAF
KHBR 040530Z 0406/0506 11006KT P6SM SCT050 BKN250
     FM041500 14011G15KT P6SM BKN250
     FM050300 16010KT P6SM BKN250=



000
FTUS44 KOUN 040530
TAFWWR
TAF
KWWR 040530Z 0406/0506 13006KT P6SM BKN100
     FM041800 15012G17KT P6SM BKN100=



000
FTUS44 KOUN 040530
TAFSPS
TAF
KSPS 040530Z 0406/0506 16008KT P6SM BKN200
     FM041500 12008KT P6SM BKN180 PROB30 0420/0502 P6SM TSRA
      BKN050CB=



000
FTUS44 KOUN 040530
TAFGAG
TAF
KGAG 040530Z 0406/0506 13006KT P6SM BKN100
     FM041800 15012G17KT P6SM BKN100=



000
FTUS44 KOUN 040530
TAFOUN
TAF
KOUN 040530Z 0406/0506 VRB05KT P6SM SCT050 BKN250
     FM041000 VRB06KT 3SM BR SCT015
     FM041500 07007KT P6SM SCT025
     FM041800 12008KT P6SM SCT050 BKN120 PROB30 0420/0424 3SM TSRA
      BKN050CB BKN120=



000
FTUS44 KOUN 040530
TAFLAW
TAF
KLAW 040530Z 0406/0506 04003KT P6SM OVC100
     FM041500 12008KT P6SM BKN180 PROB30 0420/0502 P6SM TSRA
      BKN050CB=



000
FTUS44 KOUN 040530
TAFPNC
TAF
KPNC 040530Z 0406/0506 04008KT P6SM SCT040 SCT250 PROB30 0500/0506
      P6SM TSRA BKN050CB=



000
FTUS44 KOUN 040530
TAFSPS
TAF
KSPS 040530Z 0406/0506 16008KT P6SM BKN200
     FM041500 12008KT P6SM BKN180 PROB30 0420/0502 P6SM TSRA
      BKN050CB=



000
FTUS44 KOUN 040530
TAFWWR
TAF
KWWR 040530Z 0406/0506 13006KT P6SM BKN100
     FM041800 15012G17KT P6SM BKN100=



000
FTUS44 KOUN 040220 AAA
TAFSPS
TAF AMD
KSPS 040220Z 0402/0424 12007KT P6SM VCTS SCT040CB BKN100
     FM040400 16008KT P6SM BKN200=



000
FTUS44 KOUN 040219 AAA
TAFLAW
TAF AMD
KLAW 040219Z 0402/0424 15006KT P6SM SCT050 BKN100
     FM040600 04003KT P6SM OVC100
     FM041500 12008KT P6SM BKN180=



000
FTUS44 KOUN 040219 AAA
TAFLAW
TAF AMD
KLAW 040219Z 0402/0424 15006KT P6SM SCT050 BKN100
     FM040600 04003KT P6SM OVC100
     FM041500 12008KT P6SM BKN180=



000
FTUS44 KOUN 040037 AAA
TAFHBR
TAF AMD
KHBR 040037Z 0401/0424 11010KT P6SM VCTS SCT040CB BKN110
     FM040200 11006KT P6SM SCT050 BKN250
     FM041500 14011G15KT P6SM BKN250=



000
FTUS44 KOUN 040037 AAA
TAFHBR
TAF AMD
KHBR 040037Z 0401/0424 11010KT P6SM VCTS SCT040CB BKN110
     FM040200 11006KT P6SM SCT050 BKN250
     FM041500 14011G15KT P6SM BKN250=



000
FTUS44 KOUN 040037 AAA
TAFHBR
TAF AMD
KHBR 040037Z 0401/0424 11010KT P6SM VCTS SCT040CB BKN110
     FM040200 11006KT P6SM SCT050 BKN250
     FM041500 14011G15KT P6SM BKN250=



000
FTUS44 KOUN 040037 AAA
TAFHBR
TAF AMD
KHBR 040037Z 0401/0424 11010KT P6SM VCTS SCT040CB BKN110
     FM040200 11006KT P6SM SCT050 BKN250
     FM041500 14011G15KT P6SM BKN250=



000
FTUS44 KOUN 032320
TAFGAG
TAF
KGAG 032320Z 0400/0424 04007KT P6SM SCT050 BKN150
     FM040100 13006KT P6SM BKN100
     FM041800 15012G17KT P6SM BKN100=



000
FTUS44 KOUN 032320
TAFOUN
TAF
KOUN 032320Z 0400/0424 VRB05KT P6SM SCT050 BKN250
     FM041000 VRB06KT 3SM BR BKN015
     FM041500 07007KT P6SM SCT025
     FM041800 12008KT P6SM SCT050 BKN120 PROB30 0420/0424 3SM TSRA
      BKN050CB BKN120=



000
FTUS44 KOUN 032320
TAFHBR
TAF
KHBR 032320Z 0400/0424 07007KT P6SM VCTS SCT050CB SCT250
      TEMPO 0400/0402 VRB20G30KT 2SM TSRA BKN030CB
     FM040200 11006KT P6SM SCT050 BKN250
     FM041500 14011G15KT P6SM BKN250=



000
FTUS44 KOUN 032320
TAFGAG
TAF
KGAG 032320Z 0400/0424 04007KT P6SM SCT050 BKN150
     FM040100 13006KT P6SM BKN100
     FM041800 15012G17KT P6SM BKN100=



000
FTUS44 KOUN 032320
TAFSPS
TAF
KSPS 032320Z 0400/0424 21010KT P6SM VCTS SCT040CB BKN100
      TEMPO 0400/0404 VRB25G35KT 1SM TSRA BKN030CB OVC060
     FM040400 16008KT P6SM BKN200=



000
FTUS44 KOUN 032320
TAFOUN
TAF
KOUN 032320Z 0400/0424 VRB05KT P6SM SCT050 BKN250
     FM041000 VRB06KT 3SM BR BKN015
     FM041500 07007KT P6SM SCT025
     FM041800 12008KT P6SM SCT050 BKN120 PROB30 0420/0424 3SM TSRA
      BKN050CB BKN120=



000
FTUS44 KOUN 032320
TAFOKC
TAF
KOKC 032320Z 0400/0424 VRB05KT P6SM SCT050 BKN250
     FM041000 VRB06KT 3SM BR BKN015
     FM041500 07008KT P6SM SCT025
     FM041800 12008KT P6SM SCT050 BKN120 PROB30 0420/0424 3SM TSRA
      BKN050CB BKN120=



000
FTUS44 KOUN 032320
TAFHBR
TAF
KHBR 032320Z 0400/0424 07007KT P6SM VCTS SCT050CB SCT250
      TEMPO 0400/0402 VRB20G30KT 2SM TSRA BKN030CB
     FM040200 11006KT P6SM SCT050 BKN250
     FM041500 14011G15KT P6SM BKN250=



000
FTUS44 KOUN 032320
TAFPNC
TAF
KPNC 032320Z 0400/0424 04008KT P6SM SCT040 SCT250=



000
FTUS44 KOUN 032320
TAFOKC
TAF
KOKC 032320Z 0400/0424 VRB05KT P6SM SCT050 BKN250
     FM041000 VRB06KT 3SM BR BKN015
     FM041500 07008KT P6SM SCT025
     FM041800 12008KT P6SM SCT050 BKN120 PROB30 0420/0424 3SM TSRA
      BKN050CB BKN120=



000
FTUS44 KOUN 032320
TAFSPS
TAF
KSPS 032320Z 0400/0424 21010KT P6SM VCTS SCT040CB BKN100
      TEMPO 0400/0404 VRB25G35KT 1SM TSRA BKN030CB OVC060
     FM040400 16008KT P6SM BKN200=



000
FTUS44 KOUN 032320
TAFWWR
TAF
KWWR 032320Z 0400/0424 04007KT P6SM SCT250
     FM040100 13006KT P6SM BKN100
     FM041800 15012G17KT P6SM BKN100=



000
FTUS44 KOUN 032320
TAFPNC
TAF
KPNC 032320Z 0400/0424 04008KT P6SM SCT040 SCT250=



000
FTUS44 KOUN 032320
TAFWWR
TAF
KWWR 032320Z 0400/0424 04007KT P6SM SCT250
     FM040100 13006KT P6SM BKN100
     FM041800 15012G17KT P6SM BKN100=



000
FTUS44 KOUN 032320
TAFLAW
TAF
KLAW 032320Z 0400/0424 14006KT P6SM VCTS BKN050CB BKN080
      TEMPO 0400/0403 VRB30G45KT 2SM TSRA BKN035CB OVC060
     FM040600 04003KT P6SM OVC100
     FM041500 12008KT P6SM BKN180=



000
FTUS44 KOUN 032320
TAFLAW
TAF
KLAW 032320Z 0400/0424 14006KT P6SM VCTS BKN050CB BKN080
      TEMPO 0400/0403 VRB30G45KT 2SM TSRA BKN035CB OVC060
     FM040600 04003KT P6SM OVC100
     FM041500 12008KT P6SM BKN180=



000
FTUS44 KOUN 032137 AAA
TAFHBR
TAF AMD
KHBR 032137Z 0322/0418 06007KT P6SM VCTS SCT050CB SCT250
      TEMPO 0322/0402 VRB20G30KT 1SM TSRA BKN030CB
     FM040200 11006KT P6SM SCT050 BKN250=



000
FTUS44 KOUN 032137 AAA
TAFHBR
TAF AMD
KHBR 032137Z 0322/0418 06007KT P6SM VCTS SCT050CB SCT250
      TEMPO 0322/0402 VRB20G30KT 1SM TSRA BKN030CB
     FM040200 11006KT P6SM SCT050 BKN250=



000
FTUS44 KOUN 032127 AAA
TAFSPS
TAF AMD
KSPS 032127Z 0321/0418 21010KT P6SM VCTS SCT040CB BKN250
      TEMPO 0321/0401 VRB25G35KT 1SM TSRA BKN030CB
     FM040100 16008KT P6SM BKN250=



000
FTUS44 KOUN 032116 AAB
TAFOUN
TAF AMD
KOUN 032116Z 0321/0418 16008KT P6SM VCTS SCT050CB SCT250
      TEMPO 0321/0324 VRB25G35KT 1SM TSRA BKN030CB
     FM040000 08008KT P6SM VCTS SCT050CB BKN250
     FM041000 VRB06KT 3SM BR BKN015
     FM041500 07007KT P6SM SCT025=



000
FTUS44 KOUN 032116 AAB
TAFOUN
TAF AMD
KOUN 032116Z 0321/0418 16008KT P6SM VCTS SCT050CB SCT250
      TEMPO 0321/0324 VRB25G35KT 1SM TSRA BKN030CB
     FM040000 08008KT P6SM VCTS SCT050CB BKN250
     FM041000 VRB06KT 3SM BR BKN015
     FM041500 07007KT P6SM SCT025=



000
FTUS44 KOUN 032042 AAA
TAFGAG
TAF AMD
KGAG 032042Z 0321/0418 04007KT P6SM SCT050 SCT250
      TEMPO 0321/0322 1SM TSRA BKN050CB
     FM040100 13006KT P6SM BKN100=



000
FTUS44 KOUN 032042 AAA
TAFGAG
TAF AMD
KGAG 032042Z 0321/0418 04007KT P6SM SCT050 SCT250
      TEMPO 0321/0322 1SM TSRA BKN050CB
     FM040100 13006KT P6SM BKN100=



000
FTUS44 KOUN 031730
TAFSPS
TAF
KSPS 031730Z 0318/0418 21007KT P6SM SCT040 BKN250
     FM040000 16008KT P6SM BKN250=



000
FTUS44 KOUN 031730
TAFGAG
TAF
KGAG 031730Z 0318/0418 04007KT P6SM SCT050 SCT250
     FM040100 13006KT P6SM BKN100=



000
FTUS44 KOUN 031730
TAFWWR
TAF
KWWR 031730Z 0318/0418 04007KT P6SM SCT250
     FM040100 13006KT P6SM BKN100=



000
FTUS44 KOUN 031730
TAFOUN
TAF
KOUN 031730Z 0318/0418 33008KT P6SM SCT030 SCT250
     FM040000 08008KT P6SM SCT050 BKN250 PROB30 0406/0410 TSRA
      BKN040CB
     FM041000 VRB06KT 3SM BR BKN015
     FM041500 07007KT P6SM SCT025=



000
FTUS44 KOUN 031730
TAFPNC
TAF
KPNC 031730Z 0318/0418 04008KT P6SM SCT040 SCT250=



000
FTUS44 KOUN 031730
TAFOKC
TAF
KOKC 031730Z 0318/0418 34008KT P6SM SCT030 SCT250
     FM040000 06008KT P6SM SCT050 BKN250 PROB30 0406/0410 TSRA
      BKN040CB
     FM041000 VRB06KT 3SM BR BKN015
     FM041500 07008KT P6SM SCT025=



000
FTUS44 KOUN 031730
TAFHBR
TAF
KHBR 031730Z 0318/0418 06007KT P6SM SCT040 SCT250
     FM040000 11006KT P6SM BKN250=



000
FTUS44 KOUN 031730
TAFLAW
TAF
KLAW 031730Z 0318/0418 08006KT P6SM SCT040 SCT250
     FM040000 VRB06KT P6SM BKN250=



000
FTUS44 KOUN 031730
TAFOUN
TAF
KOUN 031730Z 0318/0418 33008KT P6SM SCT030 SCT250
     FM040000 08008KT P6SM SCT050 BKN250 PROB30 0406/0410 TSRA
      BKN040CB
     FM041000 VRB06KT 3SM BR BKN015
     FM041500 07007KT P6SM SCT025=



000
FTUS44 KOUN 031730
TAFSPS
TAF
KSPS 031730Z 0318/0418 21007KT P6SM SCT040 BKN250
     FM040000 16008KT P6SM BKN250=



000
FTUS44 KOUN 031730
TAFPNC
TAF
KPNC 031730Z 0318/0418 04008KT P6SM SCT040 SCT250=



000
FTUS44 KOUN 031730
TAFWWR
TAF
KWWR 031730Z 0318/0418 04007KT P6SM SCT250
     FM040100 13006KT P6SM BKN100=



000
FTUS44 KOUN 031730
TAFLAW
TAF
KLAW 031730Z 0318/0418 08006KT P6SM SCT040 SCT250
     FM040000 VRB06KT P6SM BKN250=



000
FTUS44 KOUN 031730
TAFOKC
TAF
KOKC 031730Z 0318/0418 34008KT P6SM SCT030 SCT250
     FM040000 06008KT P6SM SCT050 BKN250 PROB30 0406/0410 TSRA
      BKN040CB
     FM041000 VRB06KT 3SM BR BKN015
     FM041500 07008KT P6SM SCT025=



000
FTUS44 KOUN 031730
TAFHBR
TAF
KHBR 031730Z 0318/0418 06007KT P6SM SCT040 SCT250
     FM040000 11006KT P6SM BKN250=



000
FTUS44 KOUN 031730
TAFGAG
TAF
KGAG 031730Z 0318/0418 04007KT P6SM SCT050 SCT250
     FM040100 13006KT P6SM BKN100=



000
FTUS44 KOUN 031730
TAFPNC
TAF
KPNC 031730Z 0318/0418 04008KT P6SM SCT040 SCT250=



000
FTUS44 KOUN 031730
TAFHBR
TAF
KHBR 031730Z 0318/0418 06007KT P6SM SCT040 SCT250
     FM040000 11006KT P6SM BKN250=



000
FTUS44 KOUN 031730
TAFOKC
TAF
KOKC 031730Z 0318/0418 34008KT P6SM SCT030 SCT250
     FM040000 06008KT P6SM SCT050 BKN250 PROB30 0406/0410 TSRA
      BKN040CB
     FM041000 VRB06KT 3SM BR BKN015
     FM041500 07008KT P6SM SCT025=



000
FTUS44 KOUN 031730
TAFPNC
TAF
KPNC 031730Z 0318/0418 04008KT P6SM SCT040 SCT250=



000
FTUS44 KOUN 031730
TAFHBR
TAF
KHBR 031730Z 0318/0418 06007KT P6SM SCT040 SCT250
     FM040000 11006KT P6SM BKN250=



000
FTUS44 KOUN 031730
TAFLAW
TAF
KLAW 031730Z 0318/0418 08006KT P6SM SCT040 SCT250
     FM040000 VRB06KT P6SM BKN250=



000
FTUS44 KOUN 031730
TAFSPS
TAF
KSPS 031730Z 0318/0418 21007KT P6SM SCT040 BKN250
     FM040000 16008KT P6SM BKN250=



000
FTUS44 KOUN 031730
TAFOUN
TAF
KOUN 031730Z 0318/0418 33008KT P6SM SCT030 SCT250
     FM040000 08008KT P6SM SCT050 BKN250 PROB30 0406/0410 TSRA
      BKN040CB
     FM041000 VRB06KT 3SM BR BKN015
     FM041500 07007KT P6SM SCT025=



000
FTUS44 KOUN 031730
TAFOKC
TAF
KOKC 031730Z 0318/0418 34008KT P6SM SCT030 SCT250
     FM040000 06008KT P6SM SCT050 BKN250 PROB30 0406/0410 TSRA
      BKN040CB
     FM041000 VRB06KT 3SM BR BKN015
     FM041500 07008KT P6SM SCT025=



000
FTUS44 KOUN 031730
TAFWWR
TAF
KWWR 031730Z 0318/0418 04007KT P6SM SCT250
     FM040100 13006KT P6SM BKN100=



000
FTUS44 KOUN 031730
TAFWWR
TAF
KWWR 031730Z 0318/0418 04007KT P6SM SCT250
     FM040100 13006KT P6SM BKN100=



000
FTUS44 KOUN 031730
TAFLAW
TAF
KLAW 031730Z 0318/0418 08006KT P6SM SCT040 SCT250
     FM040000 VRB06KT P6SM BKN250=



000
FTUS44 KOUN 031730
TAFSPS
TAF
KSPS 031730Z 0318/0418 21007KT P6SM SCT040 BKN250
     FM040000 16008KT P6SM BKN250=



000
FTUS44 KOUN 031730
TAFGAG
TAF
KGAG 031730Z 0318/0418 04007KT P6SM SCT050 SCT250
     FM040100 13006KT P6SM BKN100=



000
FTUS44 KOUN 031730
TAFOUN
TAF
KOUN 031730Z 0318/0418 33008KT P6SM SCT030 SCT250
     FM040000 08008KT P6SM SCT050 BKN250 PROB30 0406/0410 TSRA
      BKN040CB
     FM041000 VRB06KT 3SM BR BKN015
     FM041500 07007KT P6SM SCT025=



000
FTUS44 KOUN 031730
TAFGAG
TAF
KGAG 031730Z 0318/0418 04007KT P6SM SCT050 SCT250
     FM040100 13006KT P6SM BKN100=



000
FTUS44 KOUN 031139
TAFWWR
TAF
KWWR 031139Z 0312/0412 33006KT 4SM BR SCT002 SCT250
      TEMPO 0312/0314 1SM BR BKN002
     FM031400 04007KT P6SM SCT250
     FM040100 13006KT P6SM BKN250=



000
FTUS44 KOUN 031139
TAFOUN
TAF
KOUN 031139Z 0312/0412 20009KT P6SM SCT005 BKN150
      TEMPO 0312/0314 5SM BR BKN005
     FM031600 33008KT P6SM SCT030 SCT250
     FM040000 08008KT P6SM SCT050 BKN250 PROB30 0406/0412 TSRA
      BKN040CB=



000
FTUS44 KOUN 031139
TAFOKC
TAF
KOKC 031139Z 0312/0412 20010KT P6SM SCT008 BKN150
     FM031600 34008KT P6SM SCT030 SCT250
     FM040000 06008KT P6SM SCT050 BKN250 PROB30 0406/0412 TSRA
      BKN040CB=



000
FTUS44 KOUN 031139
TAFSPS
TAF
KSPS 031139Z 0312/0412 22012KT P6SM VCSH SCT008 BKN100
     FM031600 18007KT P6SM SCT040 BKN250
     FM040000 16008KT P6SM BKN250 PROB30 0400/0406 TSRA BKN030CB=



000
FTUS44 KOUN 031139
TAFGAG
TAF
KGAG 031139Z 0312/0412 35006KT 2SM BR SCT002 SCT250
      TEMPO 0312/0314 1/2SM FG VV001
     FM031400 04007KT P6SM SCT250
     FM040100 13006KT P6SM BKN250=



000
FTUS44 KOUN 031139
TAFLAW
TAF
KLAW 031139Z 0312/0412 VRB03KT P6SM VCSH SCT008 BKN100
     FM031600 08006KT P6SM SCT040 SCT250
     FM040000 11006KT P6SM BKN250 PROB30 0401/0407 TSRA BKN030CB=



000
FTUS44 KOUN 031139
TAFWWR
TAF
KWWR 031139Z 0312/0412 33006KT 4SM BR SCT002 SCT250
      TEMPO 0312/0314 1SM BR BKN002
     FM031400 04007KT P6SM SCT250
     FM040100 13006KT P6SM BKN250=



000
FTUS44 KOUN 031139
TAFSPS
TAF
KSPS 031139Z 0312/0412 22012KT P6SM VCSH SCT008 BKN100
     FM031600 18007KT P6SM SCT040 BKN250
     FM040000 16008KT P6SM BKN250 PROB30 0400/0406 TSRA BKN030CB=



000
FTUS44 KOUN 031139
TAFHBR
TAF
KHBR 031139Z 0312/0412 04007KT 6SM BR VCSH SCT007 BKN150
      TEMPO 0312/0314 4SM BR BKN007
     FM031500 06007KT P6SM SCT040 SCT250
     FM040000 11006KT P6SM BKN250 PROB30 0401/0407 TSRA BKN040CB=



000
FTUS44 KOUN 031139
TAFPNC
TAF
KPNC 031139Z 0312/0412 VRB03KT P6SM SCT250
      TEMPO 0312/0314 3SM BR
     FM031600 04008KT P6SM SCT040 SCT250=



000
FTUS44 KOUN 031139
TAFLAW
TAF
KLAW 031139Z 0312/0412 VRB03KT P6SM VCSH SCT008 BKN100
     FM031600 08006KT P6SM SCT040 SCT250
     FM040000 11006KT P6SM BKN250 PROB30 0401/0407 TSRA BKN030CB=



000
FTUS44 KOUN 031139
TAFLAW
TAF
KLAW 031139Z 0312/0412 VRB03KT P6SM VCSH SCT008 BKN100
     FM031600 08006KT P6SM SCT040 SCT250
     FM040000 11006KT P6SM BKN250 PROB30 0401/0407 TSRA BKN030CB=



000
FTUS44 KOUN 031139
TAFPNC
TAF
KPNC 031139Z 0312/0412 VRB03KT P6SM SCT250
      TEMPO 0312/0314 3SM BR
     FM031600 04008KT P6SM SCT040 SCT250=



000
FTUS44 KOUN 031139
TAFGAG
TAF
KGAG 031139Z 0312/0412 35006KT 2SM BR SCT002 SCT250
      TEMPO 0312/0314 1/2SM FG VV001
     FM031400 04007KT P6SM SCT250
     FM040100 13006KT P6SM BKN250=



000
FTUS44 KOUN 031139
TAFWWR
TAF
KWWR 031139Z 0312/0412 33006KT 4SM BR SCT002 SCT250
      TEMPO 0312/0314 1SM BR BKN002
     FM031400 04007KT P6SM SCT250
     FM040100 13006KT P6SM BKN250=



000
FTUS44 KOUN 031139
TAFHBR
TAF
KHBR 031139Z 0312/0412 04007KT 6SM BR VCSH SCT007 BKN150
      TEMPO 0312/0314 4SM BR BKN007
     FM031500 06007KT P6SM SCT040 SCT250
     FM040000 11006KT P6SM BKN250 PROB30 0401/0407 TSRA BKN040CB=



000
FTUS44 KOUN 031139
TAFOKC
TAF
KOKC 031139Z 0312/0412 20010KT P6SM SCT008 BKN150
     FM031600 34008KT P6SM SCT030 SCT250
     FM040000 06008KT P6SM SCT050 BKN250 PROB30 0406/0412 TSRA
      BKN040CB=



000
FTUS44 KOUN 031139
TAFOUN
TAF
KOUN 031139Z 0312/0412 20009KT P6SM SCT005 BKN150
      TEMPO 0312/0314 5SM BR BKN005
     FM031600 33008KT P6SM SCT030 SCT250
     FM040000 08008KT P6SM SCT050 BKN250 PROB30 0406/0412 TSRA
      BKN040CB=



000
FTUS44 KOUN 031139
TAFOUN
TAF
KOUN 031139Z 0312/0412 20009KT P6SM SCT005 BKN150
      TEMPO 0312/0314 5SM BR BKN005
     FM031600 33008KT P6SM SCT030 SCT250
     FM040000 08008KT P6SM SCT050 BKN250 PROB30 0406/0412 TSRA
      BKN040CB=



000
FTUS44 KOUN 031139
TAFHBR
TAF
KHBR 031139Z 0312/0412 04007KT 6SM BR VCSH SCT007 BKN150
      TEMPO 0312/0314 4SM BR BKN007
     FM031500 06007KT P6SM SCT040 SCT250
     FM040000 11006KT P6SM BKN250 PROB30 0401/0407 TSRA BKN040CB=



000
FTUS44 KOUN 031139
TAFGAG
TAF
KGAG 031139Z 0312/0412 35006KT 2SM BR SCT002 SCT250
      TEMPO 0312/0314 1/2SM FG VV001
     FM031400 04007KT P6SM SCT250
     FM040100 13006KT P6SM BKN250=



000
FTUS44 KOUN 031139
TAFHBR
TAF
KHBR 031139Z 0312/0412 04007KT 6SM BR VCSH SCT007 BKN150
      TEMPO 0312/0314 4SM BR BKN007
     FM031500 06007KT P6SM SCT040 SCT250
     FM040000 11006KT P6SM BKN250 PROB30 0401/0407 TSRA BKN040CB=



000
FTUS44 KOUN 031139
TAFSPS
TAF
KSPS 031139Z 0312/0412 22012KT P6SM VCSH SCT008 BKN100
     FM031600 18007KT P6SM SCT040 BKN250
     FM040000 16008KT P6SM BKN250 PROB30 0400/0406 TSRA BKN030CB=



000
FTUS44 KOUN 031139
TAFPNC
TAF
KPNC 031139Z 0312/0412 VRB03KT P6SM SCT250
      TEMPO 0312/0314 3SM BR
     FM031600 04008KT P6SM SCT040 SCT250=



000
FTUS44 KOUN 031139
TAFGAG
TAF
KGAG 031139Z 0312/0412 35006KT 2SM BR SCT002 SCT250
      TEMPO 0312/0314 1/2SM FG VV001
     FM031400 04007KT P6SM SCT250
     FM040100 13006KT P6SM BKN250=



000
FTUS44 KOUN 031139
TAFOKC
TAF
KOKC 031139Z 0312/0412 20010KT P6SM SCT008 BKN150
     FM031600 34008KT P6SM SCT030 SCT250
     FM040000 06008KT P6SM SCT050 BKN250 PROB30 0406/0412 TSRA
      BKN040CB=



000
FTUS44 KOUN 031139
TAFOKC
TAF
KOKC 031139Z 0312/0412 20010KT P6SM SCT008 BKN150
     FM031600 34008KT P6SM SCT030 SCT250
     FM040000 06008KT P6SM SCT050 BKN250 PROB30 0406/0412 TSRA
      BKN040CB=



000
FTUS44 KOUN 031139
TAFLAW
TAF
KLAW 031139Z 0312/0412 VRB03KT P6SM VCSH SCT008 BKN100
     FM031600 08006KT P6SM SCT040 SCT250
     FM040000 11006KT P6SM BKN250 PROB30 0401/0407 TSRA BKN030CB=



000
FTUS44 KOUN 031139
TAFWWR
TAF
KWWR 031139Z 0312/0412 33006KT 4SM BR SCT002 SCT250
      TEMPO 0312/0314 1SM BR BKN002
     FM031400 04007KT P6SM SCT250
     FM040100 13006KT P6SM BKN250=



000
FTUS44 KOUN 031139
TAFOUN
TAF
KOUN 031139Z 0312/0412 20009KT P6SM SCT005 BKN150
      TEMPO 0312/0314 5SM BR BKN005
     FM031600 33008KT P6SM SCT030 SCT250
     FM040000 08008KT P6SM SCT050 BKN250 PROB30 0406/0412 TSRA
      BKN040CB=



000
FTUS44 KOUN 031139
TAFSPS
TAF
KSPS 031139Z 0312/0412 22012KT P6SM VCSH SCT008 BKN100
     FM031600 18007KT P6SM SCT040 BKN250
     FM040000 16008KT P6SM BKN250 PROB30 0400/0406 TSRA BKN030CB=



000
FTUS44 KOUN 031139
TAFPNC
TAF
KPNC 031139Z 0312/0412 VRB03KT P6SM SCT250
      TEMPO 0312/0314 3SM BR
     FM031600 04008KT P6SM SCT040 SCT250=



000
FTUS44 KOUN 030819 AAB
TAFOUN
TAF AMD
KOUN 030819Z 0308/0406 15009KT P6SM BKN070
      TEMPO 0308/0310 2SM TSRA BR BKN015CB
     FM031400 23009KT P6SM SCT050 BKN250
     FM031800 31007KT P6SM SCT050 BKN100 PROB30 0318/0324 3SM TSRA
      BKN050CB
     FM040000 01008KT P6SM SCT050 BKN200 PROB30 0400/0403 P6SM TSRA
      BKN050CB=



000
FTUS44 KOUN 030819 AAB
TAFOUN
TAF AMD
KOUN 030819Z 0308/0406 15009KT P6SM BKN070
      TEMPO 0308/0310 2SM TSRA BR BKN015CB
     FM031400 23009KT P6SM SCT050 BKN250
     FM031800 31007KT P6SM SCT050 BKN100 PROB30 0318/0324 3SM TSRA
      BKN050CB
     FM040000 01008KT P6SM SCT050 BKN200 PROB30 0400/0403 P6SM TSRA
      BKN050CB=



000
FTUS44 KOUN 030819 AAB
TAFOUN
TAF AMD
KOUN 030819Z 0308/0406 15009KT P6SM BKN070
      TEMPO 0308/0310 2SM TSRA BR BKN015CB
     FM031400 23009KT P6SM SCT050 BKN250
     FM031800 31007KT P6SM SCT050 BKN100 PROB30 0318/0324 3SM TSRA
      BKN050CB
     FM040000 01008KT P6SM SCT050 BKN200 PROB30 0400/0403 P6SM TSRA
      BKN050CB=



000
FTUS44 KOUN 030819 AAB
TAFOUN
TAF AMD
KOUN 030819Z 0308/0406 15009KT P6SM BKN070
      TEMPO 0308/0310 2SM TSRA BR BKN015CB
     FM031400 23009KT P6SM SCT050 BKN250
     FM031800 31007KT P6SM SCT050 BKN100 PROB30 0318/0324 3SM TSRA
      BKN050CB
     FM040000 01008KT P6SM SCT050 BKN200 PROB30 0400/0403 P6SM TSRA
      BKN050CB=



000
FTUS44 KOUN 030818 AAA
TAFOKC
TAF AMD
KOKC 030818Z 0308/0406 15010KT P6SM BKN070
      TEMPO 0308/0310 4SM -TSRA BR SCT015CB BKN050
     FM031400 23010KT P6SM SCT050 BKN250
     FM031800 31007KT P6SM SCT050 BKN100 PROB30 0318/0324 3SM TSRA
      BKN050CB
     FM040000 01008KT P6SM SCT050 BKN200 PROB30 0400/0403 P6SM TSRA
      BKN050CB=



000
FTUS44 KOUN 030818 AAA
TAFOKC
TAF AMD
KOKC 030818Z 0308/0406 15010KT P6SM BKN070
      TEMPO 0308/0310 4SM -TSRA BR SCT015CB BKN050
     FM031400 23010KT P6SM SCT050 BKN250
     FM031800 31007KT P6SM SCT050 BKN100 PROB30 0318/0324 3SM TSRA
      BKN050CB
     FM040000 01008KT P6SM SCT050 BKN200 PROB30 0400/0403 P6SM TSRA
      BKN050CB=



000
FTUS44 KOUN 030818 AAA
TAFOKC
TAF AMD
KOKC 030818Z 0308/0406 15010KT P6SM BKN070
      TEMPO 0308/0310 4SM -TSRA BR SCT015CB BKN050
     FM031400 23010KT P6SM SCT050 BKN250
     FM031800 31007KT P6SM SCT050 BKN100 PROB30 0318/0324 3SM TSRA
      BKN050CB
     FM040000 01008KT P6SM SCT050 BKN200 PROB30 0400/0403 P6SM TSRA
      BKN050CB=



000
FTUS44 KOUN 030523
TAFOKC
TAF
KOKC 030523Z 0306/0406 15010KT P6SM BKN070
      TEMPO 0306/0308 1SM TSRA BR BKN015CB
     FM031400 23010KT P6SM SCT050 BKN250
     FM031800 31007KT P6SM SCT050 BKN100 PROB30 0318/0324 3SM TSRA
      BKN050CB
     FM040000 01008KT P6SM SCT050 BKN200 PROB30 0400/0403 P6SM TSRA
      BKN050CB=



000
FTUS44 KOUN 030523
TAFOKC
TAF
KOKC 030523Z 0306/0406 15010KT P6SM BKN070
      TEMPO 0306/0308 1SM TSRA BR BKN015CB
     FM031400 23010KT P6SM SCT050 BKN250
     FM031800 31007KT P6SM SCT050 BKN100 PROB30 0318/0324 3SM TSRA
      BKN050CB
     FM040000 01008KT P6SM SCT050 BKN200 PROB30 0400/0403 P6SM TSRA
      BKN050CB=



000
FTUS44 KOUN 030523
TAFPNC
TAF
KPNC 030523Z 0306/0406 02010KT P6SM BKN120=



000
FTUS44 KOUN 030523
TAFHBR
TAF
KHBR 030523Z 0306/0406 18010KT P6SM SCT060 BKN150
     FM031200 01007KT P6SM SCT050 PROB30 0322/0404 P6SM TSRA
      BKN050CB=



000
FTUS44 KOUN 030523
TAFLAW
TAF
KLAW 030523Z 0306/0406 VRB05KT P6SM BKN050
      TEMPO 0306/0310 4SM -TSRA OVC030CB
     FM031300 22007KT P6SM SCT050
     FM032100 16009KT P6SM BKN050
      TEMPO 0321/0324 P6SM TSRA BKN050CB
     FM040000 17007KT P6SM BKN050 OVC100 PROB30 0400/0404 P6SM TSRA
      BKN050CB=



000
FTUS44 KOUN 030523
TAFGAG
TAF
KGAG 030523Z 0306/0406 07007KT P6SM BKN120=



000
FTUS44 KOUN 030523
TAFGAG
TAF
KGAG 030523Z 0306/0406 07007KT P6SM BKN120=



000
FTUS44 KOUN 030523
TAFPNC
TAF
KPNC 030523Z 0306/0406 02010KT P6SM BKN120=



000
FTUS44 KOUN 030523
TAFWWR
TAF
KWWR 030523Z 0306/0406 07008KT P6SM BKN120=



000
FTUS44 KOUN 030523
TAFLAW
TAF
KLAW 030523Z 0306/0406 VRB05KT P6SM BKN050
      TEMPO 0306/0310 4SM -TSRA OVC030CB
     FM031300 22007KT P6SM SCT050
     FM032100 16009KT P6SM BKN050
      TEMPO 0321/0324 P6SM TSRA BKN050CB
     FM040000 17007KT P6SM BKN050 OVC100 PROB30 0400/0404 P6SM TSRA
      BKN050CB=



000
FTUS44 KOUN 030523
TAFSPS
TAF
KSPS 030523Z 0306/0406 18010KT P6SM FEW050 BKN200
     FM030700 19010KT P6SM BKN050 BKN120
     FM032100 16009KT P6SM BKN050
      TEMPO 0321/0324 P6SM TSRA BKN050CB
     FM040000 17007KT P6SM BKN050 OVC100 PROB30 0400/0404 P6SM TSRA
      BKN050CB=



000
FTUS44 KOUN 030523
TAFOUN
TAF
KOUN 030523Z 0306/0406 15009KT P6SM BKN070
      TEMPO 0306/0308 2SM TSRA BR BKN015CB
     FM031400 23009KT P6SM SCT050 BKN250
     FM031800 31007KT P6SM SCT050 BKN100 PROB30 0318/0324 3SM TSRA
      BKN050CB
     FM040000 01008KT P6SM SCT050 BKN200 PROB30 0400/0403 P6SM TSRA
      BKN050CB=



000
FTUS44 KOUN 030523
TAFHBR
TAF
KHBR 030523Z 0306/0406 18010KT P6SM SCT060 BKN150
     FM031200 01007KT P6SM SCT050 PROB30 0322/0404 P6SM TSRA
      BKN050CB=



000
FTUS44 KOUN 022328
TAFSPS
TAF
KSPS 022328Z 0300/0324 18010KT P6SM FEW050 BKN200
     FM030700 19010KT P6SM BKN050 BKN120 PROB30 0310/0316 3SM -TSRA
      BR OVC040CB
     FM031800 23010KT P6SM BKN050 PROB30 0318/0324 P6SM TSRA
      BKN050CB=



000
FTUS44 KOUN 022328
TAFLAW
TAF
KLAW 022328Z 0300/0324 17009KT P6SM SCT045 BKN150
     FM030500 VRB05KT P6SM BKN050
      TEMPO 0305/0309 3SM -TSRA OVC040CB
     FM031300 22007KT P6SM SCT050
     FM032100 16009KT P6SM BKN050
      TEMPO 0321/0324 P6SM TSRA BKN050CB=



000
FTUS44 KOUN 022328
TAFGAG
TAF
KGAG 022328Z 0300/0324 02014G18KT P6SM BKN040 OVC090
      TEMPO 0300/0302 2SM TSRA OVC035CB
     FM030200 07007KT P6SM BKN080=



000
FTUS44 KOUN 022328
TAFWWR
TAF
KWWR 022328Z 0300/0324 02012G17KT P6SM BKN040 OVC090
      TEMPO 0300/0302 2SM TSRA OVC035CB
     FM030200 07008KT P6SM BKN080=



000
FTUS44 KOUN 022328
TAFOUN
TAF
KOUN 022328Z 0300/0324 18010KT P6SM VCTS SCT045CB BKN250
      TEMPO 0302/0306 2SM -TSRA BKN040CB OVC100
     FM030600 15009KT P6SM BKN070
     FM031400 23009KT P6SM SCT050 BKN250
     FM031800 31007KT P6SM SCT050 BKN100 PROB30 0318/0324 3SM TSRA
      BKN050CB=



000
FTUS44 KOUN 022328
TAFHBR
TAF
KHBR 022328Z 0300/0324 18010KT P6SM SCT060 BKN150 PROB30 0309/0312
      3SM TSRA OVC040CB
     FM031200 01007KT P6SM SCT050=



000
FTUS44 KOUN 022328
TAFHBR
TAF
KHBR 022328Z 0300/0324 18010KT P6SM SCT060 BKN150 PROB30 0309/0312
      3SM TSRA OVC040CB
     FM031200 01007KT P6SM SCT050=



000
FTUS44 KOUN 022328
TAFOKC
TAF
KOKC 022328Z 0300/0324 18010KT P6SM VCTS BKN045CB BKN250
      TEMPO 0301/0305 2SM TSRA BKN040CB OVC100
     FM030600 15010KT P6SM BKN070
     FM031400 23010KT P6SM SCT050 BKN250
     FM031800 31007KT P6SM SCT050 BKN100 PROB30 0318/0324 3SM TSRA
      BKN050CB=



000
FTUS44 KOUN 022328
TAFOUN
TAF
KOUN 022328Z 0300/0324 18010KT P6SM VCTS SCT045CB BKN250
      TEMPO 0302/0306 2SM -TSRA BKN040CB OVC100
     FM030600 15009KT P6SM BKN070
     FM031400 23009KT P6SM SCT050 BKN250
     FM031800 31007KT P6SM SCT050 BKN100 PROB30 0318/0324 3SM TSRA
      BKN050CB=



000
FTUS44 KOUN 022328
TAFLAW
TAF
KLAW 022328Z 0300/0324 17009KT P6SM SCT045 BKN150
     FM030500 VRB05KT P6SM BKN050
      TEMPO 0305/0309 3SM -TSRA OVC040CB
     FM031300 22007KT P6SM SCT050
     FM032100 16009KT P6SM BKN050
      TEMPO 0321/0324 P6SM TSRA BKN050CB=



000
FTUS44 KOUN 022328
TAFPNC
TAF
KPNC 022328Z 0300/0324 02012KT P6SM BKN080=



000
FTUS44 KOUN 022328
TAFPNC
TAF
KPNC 022328Z 0300/0324 02012KT P6SM BKN080=



000
FTUS44 KOUN 022328
TAFGAG
TAF
KGAG 022328Z 0300/0324 02014G18KT P6SM BKN040 OVC090
      TEMPO 0300/0302 2SM TSRA OVC035CB
     FM030200 07007KT P6SM BKN080=



000
FTUS44 KOUN 022328
TAFWWR
TAF
KWWR 022328Z 0300/0324 02012G17KT P6SM BKN040 OVC090
      TEMPO 0300/0302 2SM TSRA OVC035CB
     FM030200 07008KT P6SM BKN080=



000
FTUS44 KOUN 022328
TAFOKC
TAF
KOKC 022328Z 0300/0324 18010KT P6SM VCTS BKN045CB BKN250
      TEMPO 0301/0305 2SM TSRA BKN040CB OVC100
     FM030600 15010KT P6SM BKN070
     FM031400 23010KT P6SM SCT050 BKN250
     FM031800 31007KT P6SM SCT050 BKN100 PROB30 0318/0324 3SM TSRA
      BKN050CB=



000
FTUS44 KOUN 022328
TAFSPS
TAF
KSPS 022328Z 0300/0324 18010KT P6SM FEW050 BKN200
     FM030700 19010KT P6SM BKN050 BKN120 PROB30 0310/0316 3SM -TSRA
      BR OVC040CB
     FM031800 23010KT P6SM BKN050 PROB30 0318/0324 P6SM TSRA
      BKN050CB=



000
FTUS44 KOUN 022328
TAFOUN
TAF
KOUN 022328Z 0300/0324 18010KT P6SM VCTS SCT045CB BKN250
      TEMPO 0302/0306 2SM -TSRA BKN040CB OVC100
     FM030600 15009KT P6SM BKN070
     FM031400 23009KT P6SM SCT050 BKN250
     FM031800 31007KT P6SM SCT050 BKN100 PROB30 0318/0324 3SM TSRA
      BKN050CB=



000
FTUS44 KOUN 022328
TAFHBR
TAF
KHBR 022328Z 0300/0324 18010KT P6SM SCT060 BKN150 PROB30 0309/0312
      3SM TSRA OVC040CB
     FM031200 01007KT P6SM SCT050=



000
FTUS44 KOUN 022328
TAFPNC
TAF
KPNC 022328Z 0300/0324 02012KT P6SM BKN080=



000
FTUS44 KOUN 022328
TAFGAG
TAF
KGAG 022328Z 0300/0324 02014G18KT P6SM BKN040 OVC090
      TEMPO 0300/0302 2SM TSRA OVC035CB
     FM030200 07007KT P6SM BKN080=



000
FTUS44 KOUN 022328
TAFHBR
TAF
KHBR 022328Z 0300/0324 18010KT P6SM SCT060 BKN150 PROB30 0309/0312
      3SM TSRA OVC040CB
     FM031200 01007KT P6SM SCT050=



000
FTUS44 KOUN 022328
TAFLAW
TAF
KLAW 022328Z 0300/0324 17009KT P6SM SCT045 BKN150
     FM030500 VRB05KT P6SM BKN050
      TEMPO 0305/0309 3SM -TSRA OVC040CB
     FM031300 22007KT P6SM SCT050
     FM032100 16009KT P6SM BKN050
      TEMPO 0321/0324 P6SM TSRA BKN050CB=



000
FTUS44 KOUN 022328
TAFSPS
TAF
KSPS 022328Z 0300/0324 18010KT P6SM FEW050 BKN200
     FM030700 19010KT P6SM BKN050 BKN120 PROB30 0310/0316 3SM -TSRA
      BR OVC040CB
     FM031800 23010KT P6SM BKN050 PROB30 0318/0324 P6SM TSRA
      BKN050CB=



000
FTUS44 KOUN 022328
TAFWWR
TAF
KWWR 022328Z 0300/0324 02012G17KT P6SM BKN040 OVC090
      TEMPO 0300/0302 2SM TSRA OVC035CB
     FM030200 07008KT P6SM BKN080=



000
FTUS44 KOUN 022328
TAFOKC
TAF
KOKC 022328Z 0300/0324 18010KT P6SM VCTS BKN045CB BKN250
      TEMPO 0301/0305 2SM TSRA BKN040CB OVC100
     FM030600 15010KT P6SM BKN070
     FM031400 23010KT P6SM SCT050 BKN250
     FM031800 31007KT P6SM SCT050 BKN100 PROB30 0318/0324 3SM TSRA
      BKN050CB=



000
FTUS44 KOUN 022328
TAFSPS
TAF
KSPS 022328Z 0300/0324 18010KT P6SM FEW050 BKN200
     FM030700 19010KT P6SM BKN050 BKN120 PROB30 0310/0316 3SM -TSRA
      BR OVC040CB
     FM031800 23010KT P6SM BKN050 PROB30 0318/0324 P6SM TSRA
      BKN050CB=



000
FTUS44 KOUN 022328
TAFLAW
TAF
KLAW 022328Z 0300/0324 17009KT P6SM SCT045 BKN150
     FM030500 VRB05KT P6SM BKN050
      TEMPO 0305/0309 3SM -TSRA OVC040CB
     FM031300 22007KT P6SM SCT050
     FM032100 16009KT P6SM BKN050
      TEMPO 0321/0324 P6SM TSRA BKN050CB=



    US Dept of Commerce
    National Oceanic and Atmospheric Administration
    National Weather Service
    1325 East West Highway
    Silver Spring, MD 20910
    Page Author: NWS Internet Services Team
Disclaimer
Information Quality
Credits
Glossary
Privacy Policy
Freedom of Information Act (FOIA)
About Us
Career Opportunities